Time;durP1;ratioP1;P1;durP2;ratioP2;P2;SDS_P1;SDS_P2;PMS_P1;PMS_P2;Temp;Humidity;BMP_temperature;BMP_pressure;BME280_temperature;BME280_humidity;BME280_pressure;Samples;Min_cycle;Max_cycle;Signal;HPM_P1;HPM_P2
2022/04/02 00:01:21;;;;;;;9.30;3.17;;;;;;;0.13;81.40;98720.56;6063758;23;20445;-62
2022/04/02 00:03:47;;;;;;;10.35;3.40;;;;;;;-0.02;81.00;98722.50;6039774;23;20453;-63
2022/04/02 00:06:13;;;;;;;9.90;3.90;;;;;;;0.00;81.32;98714.44;6039273;23;20022;-62
2022/04/02 00:08:39;;;;;;;9.52;3.60;;;;;;;-0.09;82.00;98715.91;6063109;23;20029;-65
2022/04/02 00:11:05;;;;;;;12.65;4.05;;;;;;;-0.04;81.70;98719.09;6039074;23;20102;-63
2022/04/02 00:13:31;;;;;;;11.23;3.92;;;;;;;-0.13;82.37;98709.09;6015611;23;20034;-62
2022/04/02 00:15:59;;;;;;;12.25;3.85;;;;;;;-0.12;83.81;98715.28;6015358;23;20062;-63
2022/04/02 00:18:25;;;;;;;9.68;3.75;;;;;;;-0.15;84.62;98721.63;6015659;23;20031;-62
2022/04/02 00:20:51;;;;;;;11.07;4.15;;;;;;;-0.19;84.87;98714.00;6038929;23;20030;-62
2022/04/02 00:26:10;;;;;;;9.07;3.03;;;;;;;-0.37;86.50;98701.03;6043138;23;20126;-63
2022/04/02 00:28:36;;;;;;;12.55;3.03;;;;;;;-0.35;86.83;98707.09;6039165;23;20063;-63
2022/04/02 00:31:03;;;;;;;11.40;4.20;;;;;;;-0.48;86.92;98671.72;6039227;23;20054;-63
2022/04/02 00:33:30;;;;;;;11.63;4.20;;;;;;;-0.39;87.84;98681.72;6064784;23;20023;-63
2022/04/02 00:35:56;;;;;;;11.07;4.25;;;;;;;-0.46;87.79;98685.75;6062835;23;20163;-64
2022/04/02 00:38:22;;;;;;;14.82;4.13;;;;;;;-0.42;88.83;98686.38;6039229;23;20355;-62
2022/04/02 00:40:47;;;;;;;10.10;3.58;;;;;;;-0.53;89.49;98684.47;6039035;23;20110;-63
2022/04/02 00:43:32;;;;;;;11.35;4.47;;;;;;;-0.59;90.10;98676.91;6015357;23;20026;-63
2022/04/02 00:46:01;;;;;;;10.18;3.58;;;;;;;-0.56;89.77;98668.75;6039194;23;20421;-62
2022/04/02 00:48:27;;;;;;;10.65;4.15;;;;;;;-0.61;89.10;98657.63;6039205;23;20019;-63
2022/04/02 00:50:55;;;;;;;13.63;4.30;;;;;;;-0.67;89.51;98660.69;6015000;23;20033;-63
2022/04/02 00:53:24;;;;;;;9.75;3.95;;;;;;;-0.74;89.83;98639.00;6064455;23;20023;-62
2022/04/02 00:55:51;;;;;;;11.77;4.32;;;;;;;-0.61;90.15;98658.47;6039125;23;20445;-61
2022/04/02 00:58:17;;;;;;;10.63;3.35;;;;;;;-0.69;89.14;98655.50;6064083;23;20318;-63
2022/04/02 01:00:44;;;;;;;12.45;4.30;;;;;;;-0.64;88.96;98650.69;6015209;23;20035;-66
2022/04/02 01:03:13;;;;;;;12.75;5.13;;;;;;;-0.68;88.76;98640.41;6062550;23;20445;-62
2022/04/02 01:05:41;;;;;;;11.38;4.40;;;;;;;-0.68;88.87;98635.09;6039410;23;20026;-63
2022/04/02 01:08:08;;;;;;;13.43;4.60;;;;;;;-0.66;88.11;98635.84;6038796;23;20324;-63
2022/04/02 01:10:39;;;;;;;10.82;4.13;;;;;;;-0.73;88.49;98623.00;6015256;23;20027;-63
2022/04/02 01:13:09;;;;;;;11.35;4.80;;;;;;;-0.69;87.37;98631.59;6038866;23;20453;-62
2022/04/02 01:15:37;;;;;;;10.80;4.38;;;;;;;-0.81;87.52;98606.75;6061923;23;20362;-63
2022/04/02 01:18:06;;;;;;;10.75;3.88;;;;;;;-0.69;86.81;98622.81;6038726;23;20027;-63
2022/04/02 01:20:35;;;;;;;10.80;4.70;;;;;;;-0.70;87.08;98618.44;6038442;23;20617;-62
2022/04/02 01:23:02;;;;;;;15.30;4.32;;;;;;;-0.75;86.25;98600.19;6038705;23;20036;-63
2022/04/02 01:25:32;;;;;;;10.45;4.68;;;;;;;-0.68;86.33;98619.19;6039716;23;20019;-63
2022/04/02 01:28:02;;;;;;;;;;;;;;;-0.65;85.17;98617.16;6063101;23;20074;-62
2022/04/02 01:30:31;;;;;;;12.48;4.38;;;;;;;-0.80;85.50;98595.19;6062910;23;19917;-62
2022/04/02 01:32:58;;;;;;;12.15;4.43;;;;;;;-0.63;84.89;98614.41;6039020;23;20174;-63
2022/04/02 01:35:25;;;;;;;11.88;5.20;;;;;;;-0.62;84.40;98606.34;6014618;23;20034;-63
2022/04/02 01:38:11;;;;;;;12.77;5.32;;;;;;;-0.63;84.33;98614.41;6018419;23;20038;-62
2022/04/02 01:40:38;;;;;;;11.57;4.57;;;;;;;-0.65;84.27;98611.00;6015284;23;20038;-63
2022/04/02 01:43:06;;;;;;;9.50;3.30;;;;;;;-0.68;84.41;98613.88;6038537;23;20023;-62
2022/04/02 01:45:32;;;;;;;12.60;5.18;;;;;;;-0.69;83.86;98598.91;6038885;23;20098;-63
2022/04/02 01:48:01;;;;;;;10.65;4.28;;;;;;;-0.62;84.04;98605.47;6038524;23;20336;-63
2022/04/02 01:50:54;;;;;;;12.25;4.30;;;;;;;-0.58;83.40;98613.13;6034780;23;20043;-63
2022/04/02 01:53:22;;;;;;;11.27;4.32;;;;;;;-0.58;83.24;98602.53;6062932;23;20022;-63
2022/04/02 01:55:48;;;;;;;11.43;4.43;;;;;;;-0.55;85.09;98591.69;6016099;23;20097;-63
2022/04/02 01:58:38;;;;;;;10.45;4.63;;;;;;;-0.70;83.10;98570.66;6038537;23;20110;-63
2022/04/02 02:01:08;;;;;;;11.18;4.40;;;;;;;-0.64;82.95;98591.47;6015509;23;20025;-62
2022/04/02 02:03:35;;;;;;;11.25;4.30;;;;;;;-0.58;82.19;98585.75;6063369;23;20057;-63
2022/04/02 02:06:01;;;;;;;11.00;4.30;;;;;;;-0.55;82.08;98585.50;6039205;23;20496;-62
2022/04/02 02:08:29;;;;;;;13.60;4.00;;;;;;;-0.63;82.56;98585.19;6063284;23;20026;-62
2022/04/02 02:11:05;;;;;;;9.50;3.75;;;;;;;-0.54;82.18;98581.91;5994235;23;20023;-62
2022/04/02 02:13:49;;;;;;;9.35;3.90;;;;;;;-0.64;82.28;98592.31;6062883;23;20098;-63
2022/04/02 02:16:19;;;;;;;11.63;4.25;;;;;;;-0.58;82.10;98577.78;6015283;23;20023;-63
2022/04/02 02:18:46;;;;;;;9.77;3.92;;;;;;;-0.57;81.85;98582.13;6014987;23;20529;-61
2022/04/02 02:21:12;;;;;;;9.82;3.60;;;;;;;-0.58;82.18;98577.78;6064016;23;20157;-62
2022/04/02 02:23:40;;;;;;;13.60;4.10;;;;;;;-0.61;81.50;98570.88;6062126;23;20090;-61
2022/04/02 02:26:06;;;;;;;9.18;3.22;;;;;;;-0.62;81.67;98585.13;6014549;23;20488;-63
2022/04/02 02:28:32;;;;;;;9.80;3.78;;;;;;;-0.73;82.07;98567.28;6038056;23;20023;-62
2022/04/02 02:30:59;;;;;;;10.95;4.00;;;;;;;-0.67;82.36;98581.91;6015012;23;20093;-62
2022/04/02 02:36:12;;;;;;;11.25;3.42;;;;;;;-0.63;81.75;98593.16;6040235;23;20129;-62
2022/04/02 02:39:01;;;;;;;9.65;3.40;;;;;;;-0.59;81.83;98594.66;6002252;23;20034;-63
2022/04/02 02:41:33;;;;;;;10.07;3.85;;;;;;;-0.63;81.69;98587.84;6064088;23;20022;-63
2022/04/02 02:44:03;;;;;;;9.77;3.65;;;;;;;-0.79;81.70;98562.41;6016895;23;20035;-62
2022/04/02 02:46:38;;;;;;;10.95;3.60;;;;;;;-0.82;82.07;98581.19;5997078;23;20097;-63
2022/04/02 02:49:11;;;;;;;8.98;3.20;;;;;;;-0.68;82.15;98600.59;6018162;23;20421;-63
2022/04/02 02:51:41;;;;;;;11.95;4.38;;;;;;;-0.59;82.86;98615.88;6012934;23;20034;-62
2022/04/02 02:54:12;;;;;;;10.07;3.63;;;;;;;-0.63;81.85;98617.03;6010702;23;20058;-64
2022/04/02 02:56:37;;;;;;;8.93;3.42;;;;;;;-0.68;82.56;98611.22;6011005;23;20308;-62
2022/04/02 02:59:04;;;;;;;11.35;4.03;;;;;;;-0.65;83.38;98611.00;6011683;23;20094;-64
2022/04/02 03:01:30;;;;;;;10.10;3.72;;;;;;;-0.73;83.97;98603.59;6011784;23;20023;-63
2022/04/02 03:03:58;;;;;;;11.15;4.43;;;;;;;-0.75;84.98;98618.75;6011550;23;20027;-63
2022/04/02 03:06:28;;;;;;;11.13;4.38;;;;;;;-0.85;85.28;98615.03;6011595;23;20113;-62
2022/04/02 03:08:54;;;;;;;10.38;3.90;;;;;;;-0.88;85.89;98615.22;6035018;23;20019;-62
2022/04/02 03:11:21;;;;;;;10.48;3.85;;;;;;;-0.87;86.62;98615.16;6011666;23;20098;-63
2022/04/02 03:13:47;;;;;;;10.50;4.13;;;;;;;-0.94;86.97;98610.38;6036716;23;20413;-63
2022/04/02 03:16:13;;;;;;;10.25;3.88;;;;;;;-1.24;87.07;98551.34;6034674;23;20411;-62
2022/04/02 03:18:55;;;;;;;9.20;3.35;;;;;;;-0.95;88.46;98593.59;5988167;23;20027;-60
2022/04/02 03:21:22;;;;;;;11.73;3.75;;;;;;;-1.03;88.61;98585.31;6011646;23;20081;-63
2022/04/02 03:23:49;;;;;;;11.80;3.83;;;;;;;-1.05;88.77;98580.13;6034689;23;20023;-62
2022/04/02 03:26:19;;;;;;;10.43;4.40;;;;;;;-1.09;89.45;98569.84;6011118;23;20027;-61
2022/04/02 03:28:46;;;;;;;12.20;4.15;;;;;;;-1.20;89.63;98551.16;6010901;23;20035;-62
2022/04/02 03:31:12;;;;;;;11.90;3.88;;;;;;;-1.08;90.07;98577.66;5987580;23;20019;-63
2022/04/02 03:33:42;;;;;;;13.68;4.32;;;;;;;-1.20;90.37;98582.97;6010651;23;20046;-62
2022/04/02 03:36:10;;;;;;;12.23;4.97;;;;;;;-1.35;90.24;98559.19;6010808;23;20544;-62
2022/04/02 03:38:40;;;;;;;12.15;4.53;;;;;;;-1.32;91.12;98569.56;6011274;23;20023;-63
2022/04/02 03:41:13;;;;;;;11.57;4.22;;;;;;;-1.17;92.12;98585.38;6034414;23;20390;-62
2022/04/02 03:43:40;;;;;;;10.82;4.00;;;;;;;-1.18;92.37;98583.69;6010185;23;20458;-62
2022/04/02 03:48:51;;;;;;;9.75;3.80;;;;;;;-1.40;93.45;98555.97;6034453;23;20031;-61
2022/04/02 03:51:17;;;;;;;9.38;3.80;;;;;;;-1.31;92.41;98581.88;6034590;23;20023;-62
2022/04/02 03:53:44;;;;;;;11.15;4.03;;;;;;;-1.24;92.09;98588.47;6010997;23;20019;-61
2022/04/02 03:56:11;;;;;;;13.48;3.50;;;;;;;-1.23;92.29;98589.31;5964211;23;20414;-62
2022/04/02 03:58:42;;;;;;;9.73;3.47;;;;;;;-1.24;92.53;98588.47;5988466;23;20107;-62
2022/04/02 04:01:12;;;;;;;11.85;4.63;;;;;;;-1.30;92.54;98586.22;6010612;23;20028;-62
2022/04/02 04:03:39;;;;;;;13.70;4.13;;;;;;;-1.41;92.80;98586.09;5987304;23;20035;-62
2022/04/02 04:06:06;;;;;;;10.02;3.90;;;;;;;-1.26;93.06;98600.13;5965058;23;20026;-64
2022/04/02 04:08:36;;;;;;;9.63;3.58;;;;;;;-1.33;93.16;98601.50;6034995;23;20020;-63
2022/04/02 04:11:03;;;;;;;10.00;4.10;;;;;;;-1.27;92.62;98599.28;6012227;23;20350;-62
2022/04/02 04:13:29;;;;;;;11.52;3.50;;;;;;;-1.34;92.53;98592.69;6011393;23;20023;-63
2022/04/02 04:16:00;;;;;;;12.10;4.03;;;;;;;-1.35;92.72;98584.81;6034768;23;20398;-62
2022/04/02 04:18:27;;;;;;;9.57;3.70;;;;;;;-1.52;92.33;98578.84;5988027;23;20086;-64
2022/04/02 04:20:54;;;;;;;10.48;3.80;;;;;;;-1.38;92.80;98580.59;6011252;23;20023;-63
2022/04/02 04:23:25;;;;;;;10.48;4.18;;;;;;;-1.28;92.19;98580.81;6010413;23;20163;-63
2022/04/02 04:25:51;;;;;;;10.00;4.05;;;;;;;-1.31;91.69;98584.53;5987378;23;20054;-63
2022/04/02 04:28:19;;;;;;;11.27;4.18;;;;;;;-1.36;92.29;98573.38;6036386;23;20034;-62
2022/04/02 04:30:48;;;;;;;11.00;4.25;;;;;;;-1.29;92.05;98579.97;5964510;23;20027;-61
2022/04/02 04:33:14;;;;;;;12.02;4.20;;;;;;;-1.23;92.12;98574.25;5987101;23;20031;-63
2022/04/02 04:35:40;;;;;;;13.77;4.28;;;;;;;-1.28;90.83;98565.78;5987060;23;20364;-63
2022/04/02 04:38:06;;;;;;;11.07;4.28;;;;;;;-1.30;91.75;98551.75;6010630;23;20031;-63
2022/04/02 04:40:33;;;;;;;10.80;3.63;;;;;;;-1.38;91.20;98559.38;5941118;23;20349;-62
2022/04/02 04:42:59;;;;;;;13.65;3.88;;;;;;;-1.25;92.10;98554.09;5987089;23;20034;-64
2022/04/02 04:45:36;;;;;;;10.07;3.90;;;;;;;-1.37;92.20;98555.78;5986856;23;20513;-63
2022/04/02 04:48:03;;;;;;;11.93;4.50;;;;;;;-1.23;93.11;98563.66;6010064;23;20109;-63
2022/04/02 04:50:36;;;;;;;;;;;;;;;-1.29;92.92;98558.75;6035677;23;20411;-64
2022/04/02 04:53:02;;;;;;;10.60;3.60;;;;;;;-1.47;93.41;98538.78;6033771;23;19951;-62
2022/04/02 04:55:29;;;;;;;10.85;3.88;;;;;;;-1.23;93.33;98558.34;5986426;23;20023;-62
2022/04/02 04:57:57;;;;;;;12.98;4.78;;;;;;;-1.19;93.74;98563.44;5963859;23;20031;-63
2022/04/02 05:00:26;;;;;;;11.98;4.55;;;;;;;-1.16;93.09;98568.53;6057391;23;20027;-63
2022/04/02 05:02:53;;;;;;;11.40;4.57;;;;;;;-1.07;92.86;98562.59;5987057;23;20529;-63
2022/04/02 05:05:28;;;;;;;11.48;4.13;;;;;;;-0.96;92.61;98560.06;5988067;23;20130;-63
2022/04/02 05:07:54;;;;;;;13.70;5.03;;;;;;;-0.94;92.08;98565.28;6010494;23;20102;-64
2022/04/02 05:10:22;;;;;;;10.27;4.43;;;;;;;-1.09;92.30;98560.06;6010320;23;20027;-63
2022/04/02 05:12:48;;;;;;;11.05;4.55;;;;;;;-0.88;92.98;98563.03;5963630;23;20034;-63
2022/04/02 05:15:15;;;;;;;12.15;4.00;;;;;;;-0.97;92.12;98558.38;6010153;23;20458;-63
2022/04/02 05:17:45;;;;;;;12.63;5.30;;;;;;;-0.92;92.15;98555.38;6009785;23;20062;-62
2022/04/02 05:20:14;;;;;;;12.93;4.63;;;;;;;-0.96;91.71;98554.75;5963772;23;20027;-62
2022/04/02 05:22:42;;;;;;;13.75;4.13;;;;;;;-1.00;91.63;98542.66;5987856;23;20419;-63
2022/04/02 05:25:08;;;;;;;10.90;4.45;;;;;;;-0.88;92.20;98554.22;6010078;23;20108;-63
2022/04/02 05:27:34;;;;;;;10.63;4.30;;;;;;;-0.83;91.69;98557.41;6033405;23;20469;-62
2022/04/02 05:30:01;;;;;;;9.00;2.60;;;;;;;-1.10;91.74;98544.25;6033828;23;20027;-63
2022/04/02 05:32:30;;;;;;;12.77;4.88;;;;;;;-0.93;93.64;98538.63;6010295;23;20528;-64
2022/04/02 05:34:57;;;;;;;17.45;4.50;;;;;;;-0.81;91.96;98543.06;5986832;23;20433;-64
2022/04/02 05:37:23;;;;;;;13.27;4.38;;;;;;;-0.84;92.12;98548.63;6010044;23;20129;-63
2022/04/02 05:39:49;;;;;;;12.98;4.82;;;;;;;-0.93;92.08;98549.25;6010204;23;20083;-64
2022/04/02 05:42:15;;;;;;;12.43;4.97;;;;;;;-0.74;91.21;98531.06;5986788;23;20119;-62
2022/04/02 05:44:41;;;;;;;11.48;4.95;;;;;;;-0.74;90.65;98528.41;5963588;23;20257;-63
2022/04/02 05:47:07;;;;;;;11.38;4.97;;;;;;;-0.74;91.21;98525.75;6010198;23;20023;-62
2022/04/02 05:49:33;;;;;;;10.70;4.30;;;;;;;-0.73;91.01;98530.13;5986848;23;20038;-63
2022/04/02 05:51:59;;;;;;;10.90;5.28;;;;;;;-0.81;90.51;98518.34;6027518;23;20086;-64
2022/04/02 05:54:25;;;;;;;11.00;4.70;;;;;;;-0.64;90.15;98530.44;6030767;23;20381;-66
2022/04/02 05:56:52;;;;;;;12.13;4.85;;;;;;;-0.71;90.30;98530.00;6005677;23;20217;-65
2022/04/02 05:59:19;;;;;;;10.30;4.53;;;;;;;-0.59;91.01;98528.28;6011891;23;20031;-66
2022/04/02 06:01:45;;;;;;;11.00;4.00;;;;;;;-0.58;90.66;98512.28;6012218;23;20025;-65
2022/04/02 06:04:11;;;;;;;11.63;5.10;;;;;;;-0.38;89.88;98512.63;6011200;23;20027;-64
2022/04/02 06:06:37;;;;;;;15.77;5.15;;;;;;;-0.47;89.54;98503.53;6012506;23;20042;-65
2022/04/02 06:09:04;;;;;;;13.73;4.72;;;;;;;-0.59;89.69;98493.78;5989625;23;20026;-71
2022/04/02 06:11:30;;;;;;;12.30;4.90;;;;;;;-0.65;89.89;98479.16;6037948;23;20029;-64
2022/04/02 06:13:57;;;;;;;10.77;4.63;;;;;;;-0.44;90.21;98498.00;5966594;23;20168;-63
2022/04/02 06:16:26;;;;;;;13.55;5.22;;;;;;;-0.42;90.52;98484.63;6037858;23;20086;-66
2022/04/02 06:18:53;;;;;;;12.90;5.05;;;;;;;-0.33;89.71;98490.13;6036671;23;20062;-66
2022/04/02 06:21:19;;;;;;;15.02;5.65;;;;;;;-0.28;91.20;98472.03;6014643;23;20444;-66
2022/04/02 06:23:46;;;;;;;14.55;6.22;;;;;;;-0.26;89.84;98491.38;6013748;23;20034;-63
2022/04/02 06:26:12;;;;;;;13.98;5.25;;;;;;;-0.39;89.76;98485.25;6014207;23;20070;-67
2022/04/02 06:28:39;;;;;;;12.27;4.85;;;;;;;-0.46;90.61;98489.31;6014680;23;20018;-69
2022/04/02 06:31:05;;;;;;;14.05;5.65;;;;;;;-0.45;89.56;98485.69;6015144;23;20057;-64
2022/04/02 06:33:38;;;;;;;564.05;79.45;;;;;;;-0.51;91.32;98491.47;6013795;23;20433;-64
2022/04/02 06:36:07;;;;;;;58.28;10.68;;;;;;;-0.35;91.56;98480.56;6014984;23;20027;-64
2022/04/02 06:38:34;;;;;;;335.77;40.00;;;;;;;-0.27;90.07;98479.03;5990128;23;20029;-65
2022/04/02 06:41:00;;;;;;;13.38;5.30;;;;;;;-0.45;89.80;98475.06;5966643;23;20139;-65
2022/04/02 06:43:26;;;;;;;556.67;67.78;;;;;;;-0.32;90.65;98459.09;6013347;23;20015;-65
2022/04/02 06:46:01;;;;;;;15.52;5.47;;;;;;;-0.19;89.95;98454.56;5991745;23;20047;-64
2022/04/02 06:48:27;;;;;;;593.45;69.30;;;;;;;-0.16;91.04;98453.50;6027576;23;20434;-68
2022/04/02 06:50:54;;;;;;;965.65;117.82;;;;;;;-0.03;89.81;98446.34;5990296;23;20054;-68
2022/04/02 06:53:20;;;;;;;1190.47;180.48;;;;;;;0.14;91.41;98434.41;5967275;23;20716;-64
2022/04/02 06:55:46;;;;;;;26.65;6.50;;;;;;;0.12;88.90;98421.25;5991301;23;20031;-64
2022/04/02 06:58:32;;;;;;;245.57;28.67;;;;;;;0.24;88.61;98425.63;6014317;23;20453;-66
2022/04/02 07:00:58;;;;;;;23.88;7.13;;;;;;;0.23;88.21;98410.66;6013273;23;20054;-64
2022/04/02 07:03:24;;;;;;;71.07;12.43;;;;;;;0.23;88.66;98413.31;6013299;23;20019;-65
2022/04/02 07:05:51;;;;;;;23.75;6.78;;;;;;;0.32;87.23;98400.28;5976924;23;20033;-66
2022/04/02 07:08:17;;;;;;;16.98;6.15;;;;;;;0.30;87.33;98386.28;6021156;23;20047;-65
2022/04/02 07:10:43;;;;;;;16.35;5.72;;;;;;;0.36;87.52;98385.78;6020330;23;20461;-67
2022/04/02 07:13:09;;;;;;;133.65;21.02;;;;;;;0.63;88.97;98398.78;6025816;23;20184;-65
2022/04/02 07:15:36;;;;;;;13.48;5.47;;;;;;;0.48;87.60;98385.69;5980665;23;20124;-65
2022/04/02 07:18:06;;;;;;;1075.50;146.68;;;;;;;0.60;88.11;98381.22;6007813;23;20049;-66
2022/04/02 07:20:38;;;;;;;1999.90;381.17;;;;;;;0.72;88.09;98384.75;6055189;23;20364;-68
2022/04/02 07:23:07;;;;;;;94.93;12.27;;;;;;;0.91;85.05;98397.44;6011341;23;20023;-65
2022/04/02 07:25:37;;;;;;;18.10;5.47;;;;;;;0.96;85.69;98398.78;6059775;23;20060;-65
2022/04/02 07:28:04;;;;;;;16.33;6.57;;;;;;;0.63;85.73;98377.50;6008169;23;20514;-65
2022/04/02 07:30:32;;;;;;;21.00;6.72;;;;;;;0.69;86.42;98388.47;6032361;23;20023;-66
2022/04/02 07:32:58;;;;;;;15.00;6.75;;;;;;;0.59;87.56;98387.53;6033286;23;20058;-67
2022/04/02 07:35:33;;;;;;;274.67;32.53;;;;;;;0.67;87.34;98398.41;6035521;23;20551;-64
2022/04/02 07:38:08;;;;;;;17.17;6.68;;;;;;;0.69;87.12;98392.94;6011836;23;20146;-67
2022/04/02 07:41:00;;;;;;;1289.43;152.13;;;;;;;0.77;86.92;98379.06;6036372;23;20088;-67
2022/04/02 07:43:38;;;;;;;17.58;6.72;;;;;;;0.84;86.70;98383.78;5988405;23;20029;-64
2022/04/02 07:46:14;;;;;;;19.40;7.18;;;;;;;0.91;86.45;98381.47;6036577;23;20086;-69
2022/04/02 07:48:41;;;;;;;20.88;6.95;;;;;;;1.00;86.34;98375.44;6009266;23;20027;-66
2022/04/02 07:51:11;;;;;;;16.88;6.70;;;;;;;0.68;86.96;98354.03;6009505;23;20030;-65
2022/04/02 07:53:50;;;;;;;;;;;;;;;0.92;86.00;98372.53;5963581;23;20061;-66
2022/04/02 07:56:25;;;;;;;213.77;23.88;;;;;;;0.82;85.78;98358.28;6059845;23;19995;-65
2022/04/02 07:58:56;;;;;;;17.10;5.65;;;;;;;0.88;86.17;98371.09;5966590;23;20027;-66
2022/04/02 08:01:24;;;;;;;13.35;5.43;;;;;;;0.93;85.85;98359.09;6036617;23;20496;-66
2022/04/02 08:03:52;;;;;;;423.17;49.90;;;;;;;1.24;86.22;98355.78;5988850;23;20026;-65
2022/04/02 08:06:20;;;;;;;12.63;5.63;;;;;;;1.22;84.65;98347.09;6012633;23;20342;-65
2022/04/02 08:08:47;;;;;;;19.30;6.50;;;;;;;1.14;83.71;98345.91;6012733;23;20023;-65
2022/04/02 08:11:17;;;;;;;56.97;11.60;;;;;;;1.15;85.84;98347.56;6036770;23;20069;-65
2022/04/02 08:13:46;;;;;;;16.48;5.70;;;;;;;1.05;85.65;98341.31;6012847;23;20097;-65
2022/04/02 08:16:13;;;;;;;14.05;6.13;;;;;;;1.14;85.75;98313.97;5989131;23;20031;-66
2022/04/02 08:18:41;;;;;;;22.10;6.68;;;;;;;1.22;84.78;98326.63;6012233;23;20033;-65
2022/04/02 08:21:13;;;;;;;11.85;5.15;;;;;;;0.89;85.05;98315.09;6013447;23;20030;-65
2022/04/02 08:23:40;;;;;;;46.28;10.55;;;;;;;1.34;87.29;98311.47;6011496;23;20042;-65
2022/04/02 08:26:47;;;;;;;62.53;10.20;;;;;;;0.95;85.73;98305.75;6035717;23;20037;-65
2022/04/02 08:29:46;;;;;;;643.40;65.68;;;;;;;0.91;85.76;98297.16;5977717;23;20054;-65
2022/04/02 08:32:47;;;;;;;83.68;10.57;;;;;;;0.91;85.65;98322.94;6033433;23;20049;-65
2022/04/02 08:35:20;;;;;;;31.08;6.78;;;;;;;0.87;86.55;98316.19;5921588;24;20498;-65
2022/04/02 08:38:17;;;;;;;12.93;5.05;;;;;;;0.89;86.25;98311.59;6021657;23;20055;-65
2022/04/02 08:40:59;;;;;;;32.03;9.40;;;;;;;1.00;86.99;98311.56;6036212;23;20361;-65
2022/04/02 08:43:47;;;;;;;12.45;4.50;;;;;;;0.96;86.44;98304.81;6012051;23;20062;-66
2022/04/02 08:46:36;;;;;;;11.90;4.13;;;;;;;0.84;87.10;98289.81;6035024;23;20033;-65
2022/04/02 08:49:21;;;;;;;12.18;4.93;;;;;;;0.82;86.73;98281.13;6011585;23;20026;-65
2022/04/02 08:52:09;;;;;;;12.05;4.72;;;;;;;0.65;86.48;98270.03;6061549;23;20023;-65
2022/04/02 08:54:58;;;;;;;11.75;5.03;;;;;;;0.56;86.48;98276.09;6007322;23;20022;-65
2022/04/02 08:57:29;;;;;;;10.35;4.28;;;;;;;0.65;86.92;98270.03;6036085;23;20029;-64
2022/04/02 09:00:07;;;;;;;18.15;5.20;;;;;;;0.79;86.62;98276.06;6036843;23;20023;-65
2022/04/02 09:02:54;;;;;;;108.75;13.30;;;;;;;0.81;86.77;98252.84;6038002;23;20132;-65
2022/04/02 09:05:41;;;;;;;12.95;5.60;;;;;;;1.02;85.89;98267.03;6062704;23;20023;-65
2022/04/02 09:08:46;;;;;;;74.60;9.15;;;;;;;0.88;85.42;98267.34;6012534;23;20030;-65
2022/04/02 09:11:23;;;;;;;251.93;27.30;;;;;;;0.94;85.43;98264.16;6059292;23;20514;-64
2022/04/02 09:13:57;;;;;;;102.85;12.52;;;;;;;0.93;84.38;98257.16;6009951;23;20480;-66
2022/04/02 09:16:28;;;;;;;15.80;5.30;;;;;;;0.86;85.42;98258.63;6030217;23;20026;-65
2022/04/02 09:19:15;;;;;;;23.05;5.63;;;;;;;0.80;85.71;98257.28;6058569;23;20146;-64
2022/04/02 09:22:02;;;;;;;28.92;6.05;;;;;;;0.75;84.93;98237.38;6012707;23;20027;-66
2022/04/02 09:25:15;;;;;;;15.13;5.20;;;;;;;0.83;84.85;98225.13;6011312;23;20471;-66
2022/04/02 09:28:08;;;;;;;13.05;4.78;;;;;;;1.20;84.52;98232.75;6061123;23;20075;-66
2022/04/02 09:30:57;;;;;;;25.55;6.85;;;;;;;1.19;84.06;98226.59;6012153;23;20046;-67
2022/04/02 09:33:36;;;;;;;11.10;5.40;;;;;;;1.38;84.37;98225.03;6013030;23;20027;-68
2022/04/02 09:36:38;;;;;;;11.43;5.10;;;;;;;1.27;83.20;98209.97;6035908;23;20061;-68
2022/04/02 09:39:27;;;;;;;15.52;4.43;;;;;;;1.30;83.26;98198.22;6011872;23;20050;-67
2022/04/02 09:42:25;;;;;;;12.00;5.20;;;;;;;1.38;83.70;98203.75;6035844;23;20094;-67
2022/04/02 09:45:15;;;;;;;13.57;5.45;;;;;;;1.45;83.54;98195.09;6014198;23;20019;-67
2022/04/02 09:47:48;;;;;;;15.07;5.43;;;;;;;1.18;83.16;98171.66;6013689;23;20113;-68
2022/04/02 09:50:21;;;;;;;33.10;6.95;;;;;;;1.40;83.05;98186.69;6013378;23;20015;-66
2022/04/02 09:53:06;;;;;;;11.85;4.93;;;;;;;1.18;82.45;98182.31;6010877;23;20043;-66
2022/04/02 09:55:57;;;;;;;11.63;4.80;;;;;;;0.88;82.57;98129.00;5983093;23;20457;-68
2022/04/02 09:58:54;;;;;;;13.98;4.93;;;;;;;1.15;82.96;98182.56;5981307;23;20063;-67
2022/04/02 10:01:27;;;;;;;13.93;4.53;;;;;;;1.00;84.68;98172.38;5980033;23;20037;-68
2022/04/02 10:04:15;;;;;;;18.58;5.38;;;;;;;0.89;84.26;98155.47;6009309;23;20064;-68
2022/04/02 10:06:42;;;;;;;13.30;5.13;;;;;;;0.88;84.83;98184.88;6009963;23;20031;-70
2022/04/02 10:09:13;;;;;;;21.50;5.57;;;;;;;0.92;86.07;98186.31;5985913;23;20103;-70
2022/04/02 10:11:58;;;;;;;39.05;7.03;;;;;;;0.77;85.83;98182.22;5986370;23;20043;-69
2022/04/02 10:14:29;;;;;;;12.02;5.15;;;;;;;0.68;85.16;98179.34;5963927;23;20070;-68
2022/04/02 10:17:03;;;;;;;12.18;5.63;;;;;;;0.53;86.60;98134.56;5986480;23;20032;-69
2022/04/02 10:19:33;;;;;;;9.23;3.30;;;;;;;0.54;87.09;98178.78;6009427;23;20023;-69
2022/04/02 10:22:04;;;;;;;11.07;5.43;;;;;;;0.58;85.96;98157.16;5986424;23;20477;-71
2022/04/02 10:24:45;;;;;;;12.68;4.85;;;;;;;0.74;86.25;98161.22;5985946;23;20027;-66
2022/04/02 10:27:13;;;;;;;9.20;4.25;;;;;;;0.53;86.13;98148.72;5985972;23;20032;-73
2022/04/02 10:30:01;;;;;;;13.60;5.15;;;;;;;0.56;86.04;98126.34;5986495;23;20027;-66
2022/04/02 10:32:46;;;;;;;10.10;4.05;;;;;;;0.59;86.06;98142.91;5987230;23;20031;-69
2022/04/02 10:35:13;;;;;;;14.88;5.35;;;;;;;0.65;86.19;98130.91;6031675;23;20458;-69
2022/04/02 10:37:59;;;;;;;11.95;5.80;;;;;;;0.59;85.86;98123.44;6007413;23;20034;-66
2022/04/02 10:40:25;;;;;;;15.07;5.05;;;;;;;0.71;86.38;98131.25;5980361;23;20087;-65
2022/04/02 10:42:55;;;;;;;11.00;4.68;;;;;;;0.67;86.48;98134.28;5980985;23;20138;-66
2022/04/02 10:45:22;;;;;;;15.15;5.22;;;;;;;0.58;86.78;98119.91;6007345;23;20023;-65
2022/04/02 10:48:09;;;;;;;11.60;5.20;;;;;;;0.56;87.61;98134.34;6008831;23;20027;-66
2022/04/02 10:50:37;;;;;;;13.50;5.40;;;;;;;0.49;88.80;98136.63;6008011;23;20031;-67
2022/04/02 10:53:04;;;;;;;10.63;4.80;;;;;;;0.45;89.17;98135.22;5961716;23;20039;-67
2022/04/02 10:55:30;;;;;;;11.40;5.10;;;;;;;0.41;90.73;98144.41;6033399;23;20038;-70
2022/04/02 10:57:59;;;;;;;11.60;5.32;;;;;;;0.19;90.36;98124.88;5960967;23;20100;-68
2022/04/02 11:00:29;;;;;;;13.25;5.45;;;;;;;0.31;91.79;98164.72;6009138;23;20043;-68
2022/04/02 11:03:02;;;;;;;;;;;;;;;0.19;92.09;98171.88;6009882;23;20485;-70
2022/04/02 11:05:29;;;;;;;10.07;4.95;;;;;;;0.24;93.41;98182.97;6032845;23;20004;-68
2022/04/02 11:08:04;;;;;;;13.13;5.07;;;;;;;0.17;94.32;98177.28;5962079;23;20121;-67
2022/04/02 11:10:34;;;;;;;11.18;5.35;;;;;;;0.20;94.31;98190.34;6035003;23;20034;-67
2022/04/02 11:13:01;;;;;;;9.75;4.65;;;;;;;0.04;95.22;98189.88;5986193;23;20027;-73
2022/04/02 11:15:33;;;;;;;15.90;6.30;;;;;;;0.07;95.49;98181.63;5986587;23;20019;-68
2022/04/02 11:17:59;;;;;;;14.05;5.85;;;;;;;0.07;96.67;98168.34;6009471;23;20083;-67
2022/04/02 11:20:27;;;;;;;14.10;5.82;;;;;;;0.09;97.09;98174.41;5959630;23;20417;-69
2022/04/02 11:22:59;;;;;;;16.48;6.50;;;;;;;0.07;97.19;98178.97;5956517;23;20027;-66
2022/04/02 11:25:31;;;;;;;13.55;5.78;;;;;;;0.08;97.92;98175.38;6004961;23;20031;-67
2022/04/02 11:28:12;;;;;;;15.15;6.07;;;;;;;-0.08;99.46;98137.69;6006279;23;20027;-66
2022/04/02 11:30:51;;;;;;;14.38;6.18;;;;;;;0.20;99.31;98179.69;6032301;23;20030;-65
2022/04/02 11:33:19;;;;;;;13.23;6.50;;;;;;;0.15;99.21;98184.56;5984866;23;20354;-65
2022/04/02 11:35:57;;;;;;;13.10;6.40;;;;;;;0.26;98.74;98190.78;5984315;23;20027;-65
2022/04/02 11:38:36;;;;;;;13.15;5.57;;;;;;;-0.11;98.69;98127.31;6033485;23;20493;-66
2022/04/02 11:41:14;;;;;;;15.25;7.38;;;;;;;0.18;99.27;98168.38;5986038;23;20038;-66
2022/04/02 11:43:43;;;;;;;14.52;6.85;;;;;;;0.08;99.67;98154.13;6033689;23;20023;-66
2022/04/02 11:46:12;;;;;;;13.85;6.78;;;;;;;0.14;100.00;98150.13;5987278;23;20102;-67
2022/04/02 11:48:52;;;;;;;9.00;3.90;;;;;;;0.03;100.00;98135.03;5963098;23;20542;-66
2022/04/02 11:51:20;;;;;;;14.68;5.95;;;;;;;-0.04;100.00;98123.19;6045436;23;20033;-66
2022/04/02 11:53:46;;;;;;;14.48;6.90;;;;;;;-0.23;100.00;98073.38;6063482;23;20045;-65
2022/04/02 11:56:32;;;;;;;14.48;7.40;;;;;;;-0.06;100.00;98109.22;6038257;23;20121;-65
2022/04/02 11:59:01;;;;;;;16.20;7.45;;;;;;;-0.14;100.00;98098.38;6037153;23;20030;-68